アナディリ の空港の天気 - METARとTAF

アナディリ・ウゴルヌイ空港 ( UHMA / DYR ) - ロシア アナディリ
飛行場実況気象(Metar)
観測時間02/18 01:00 MAGT (02/17 14:00 UTC)
風向・風速東南東 6m/s
視程10km以上
天気現象
なし
気温-4℃
湿度74%
気圧995hPa
METARUHMA 171400Z 11006MPS CAVOK M04/M08 Q0995 R01/////// NOSIG RMK END R01/11009MPS QFE743/0990
過去の天気等 Google飛行場航空写真 Wunderground天気予報

過去48時間のMETAR

飛行場予報(TAF)
発表時間: 2/18 00:56 MAGT (2/17 13:56 UTC)
予報対象時間: 18日2時 MAGT ~ 19日2時 MAGT
風向・風速南南東 7m/s
視程5000m
天気現象弱い雪
全天の4割程度の雲 雲底高度 210m
全天の8割程度の雲 雲底高度 760m
18日2時 MAGT ~ 18日14時 MAGT に一時的に
風向・風速東南東 8m/s 瞬間風速 13m/s
視程1000m
天気現象しゅう雪 低い地吹雪
全天の8割程度の雲 雲底高度 150m
全天の8割程度の積乱雲 雲底高度 460m
18日14時 MAGT ~ 18日20時 MAGT に一時的に
風向・風速北 3m/s 瞬間風速 8m/s
視程1000m
天気現象しゅう雪
全天の8割程度の雲 雲底高度 150m
全天の8割程度の積乱雲 雲底高度 460m
18日20時 MAGT ~ 19日2時 MAGT に一時的に
風向・風速東南東 5m/s
視程1000m
天気現象もや
全天を覆う雲 雲底高度 150m
TAF UHMA 171356Z 1715/1815 15007MPS 5000 -SN SCT007 BKN025
TEMPO 1715/1803 11008G13MPS 1000 SHSN DRSN BKN005 BKN015CB
TEMPO 1803/1809 35003G08MPS 1000 SHSN BKN005 BKN015CB
TEMPO 1809/1815 12005MPS 1000 BR OVC005